createdAt,value
2017-11-24T00:00:11.461Z,87.20
2017-11-24T00:02:39.817Z,87.10
2017-11-24T00:05:08.063Z,87.80
2017-11-24T00:07:35.559Z,87.70
2017-11-24T00:10:03.032Z,88.20
2017-11-24T00:12:30.494Z,88.30
2017-11-24T00:14:57.967Z,88.80
2017-11-24T00:17:25.430Z,89.40
2017-11-24T00:19:52.956Z,90.10
2017-11-24T00:22:20.423Z,90.30
2017-11-24T00:24:48.670Z,90.90
2017-11-24T00:27:16.907Z,91.30
2017-11-24T00:29:44.422Z,91.30
2017-11-24T00:32:11.906Z,91.40
2017-11-24T00:34:39.414Z,91.70
2017-11-24T00:37:06.890Z,91.90
2017-11-24T00:39:35.124Z,92.30
2017-11-24T00:42:02.637Z,92.30
2017-11-24T00:44:30.140Z,92.40
2017-11-24T00:46:57.639Z,92.50
2017-11-24T00:49:25.870Z,92.50
2017-11-24T00:51:53.388Z,92.50
2017-11-24T00:54:20.864Z,92.50
2017-11-24T00:56:48.346Z,92.50
2017-11-24T00:59:15.810Z,92.50
2017-11-24T01:01:43.289Z,92.40
2017-11-24T01:04:10.832Z,92.40
2017-11-24T01:06:38.340Z,92.50
2017-11-24T01:09:06.581Z,92.50
2017-11-24T01:11:34.063Z,92.50
2017-11-24T01:14:01.564Z,92.50
2017-11-24T01:16:29.038Z,92.50
2017-11-24T01:18:56.507Z,92.50
2017-11-24T01:21:23.998Z,92.60
2017-11-24T01:23:52.242Z,92.60
2017-11-24T01:26:19.770Z,92.60
2017-11-24T01:28:47.263Z,92.70
2017-11-24T01:31:14.763Z,93.00
2017-11-24T01:33:42.993Z,92.70
2017-11-24T01:36:10.470Z,92.70
2017-11-24T01:38:37.947Z,92.70
2017-11-24T01:41:06.190Z,92.90
2017-11-24T01:43:33.662Z,92.90
2017-11-24T01:46:01.139Z,93.00
2017-11-24T01:48:29.391Z,93.40
2017-11-24T01:50:56.873Z,93.40
2017-11-24T01:53:25.140Z,93.80
2017-11-24T01:55:52.713Z,93.80
2017-11-24T01:58:20.970Z,93.90
2017-11-24T02:00:48.456Z,93.90
2017-11-24T02:03:16.751Z,94.00
2017-11-24T02:05:44.961Z,94.10
2017-11-24T02:08:12.466Z,94.10
2017-11-24T02:10:40.693Z,94.70
2017-11-24T02:13:08.176Z,94.70
2017-11-24T02:15:35.663Z,94.70
2017-11-24T02:18:03.912Z,94.90
2017-11-24T02:20:31.388Z,94.90
2017-11-24T02:22:59.644Z,95.60
2017-11-24T02:25:27.117Z,95.60
2017-11-24T02:27:54.666Z,95.90
2017-11-24T02:30:22.132Z,95.90
2017-11-24T02:32:49.629Z,96.10
2017-11-24T02:35:17.108Z,96.30
2017-11-24T02:37:44.612Z,96.60
2017-11-24T02:40:12.097Z,96.70
2017-11-24T02:42:40.038Z,96.90
2017-11-24T02:45:07.525Z,97.40
2017-11-24T02:47:34.991Z,97.40
2017-11-24T02:50:02.490Z,97.90
2017-11-24T02:52:30.026Z,98.40
2017-11-24T02:54:57.504Z,98.60
2017-11-24T02:57:25.020Z,98.60
2017-11-24T02:59:53.250Z,98.60
2017-11-24T03:02:20.744Z,98.60
2017-11-24T03:04:49.012Z,99.90
2017-11-24T03:07:16.530Z,99.90
2017-11-24T03:09:44.013Z,99.90
2017-11-24T03:12:11.485Z,99.90
2017-11-24T03:14:39.015Z,99.90
2017-11-24T03:17:06.513Z,99.90
2017-11-24T03:19:34.747Z,99.90
2017-11-24T03:22:02.244Z,99.90
2017-11-24T03:24:30.478Z,99.90
2017-11-24T03:26:57.989Z,99.90
2017-11-24T03:29:26.271Z,99.90
2017-11-24T03:31:54.532Z,99.90
2017-11-24T03:34:22.021Z,99.90
2017-11-24T03:36:49.495Z,99.90
2017-11-24T03:39:16.992Z,99.90
2017-11-24T03:41:44.472Z,99.90
2017-11-24T03:44:12.896Z,99.90
2017-11-24T03:46:40.389Z,99.90
2017-11-24T03:49:07.863Z,99.90
2017-11-24T03:51:36.130Z,99.90
2017-11-24T03:54:03.620Z,99.90
2017-11-24T03:56:31.864Z,99.90
2017-11-24T03:59:00.859Z,99.90
2017-11-24T04:01:28.341Z,99.90
2017-11-24T04:03:55.827Z,99.90
2017-11-24T04:06:23.327Z,99.90
2017-11-24T04:08:50.812Z,99.90
2017-11-24T04:11:19.119Z,99.90
2017-11-24T04:13:46.613Z,99.90
2017-11-24T04:16:14.083Z,99.90
2017-11-24T04:18:41.565Z,99.90
2017-11-24T04:21:09.805Z,99.90
2017-11-24T04:23:37.300Z,99.90
2017-11-24T04:26:04.768Z,99.90
2017-11-24T04:28:33.010Z,99.90
2017-11-24T04:31:00.507Z,99.90
2017-11-24T04:33:28.735Z,99.90
2017-11-24T04:35:56.228Z,99.90
2017-11-24T04:38:24.504Z,99.90
2017-11-24T04:40:52.741Z,99.90
2017-11-24T04:43:20.223Z,99.90
2017-11-24T04:45:47.691Z,99.90
2017-11-24T04:48:15.190Z,99.90
2017-11-24T04:50:42.716Z,99.90
2017-11-24T04:53:10.133Z,99.90
2017-11-24T04:55:37.619Z,99.90
2017-11-24T04:58:05.084Z,99.90
2017-11-24T05:00:32.560Z,99.90
2017-11-24T05:03:00.805Z,99.90
2017-11-24T05:05:28.365Z,99.90
2017-11-24T05:07:55.852Z,99.90
2017-11-24T05:10:24.082Z,99.90
2017-11-24T05:12:51.564Z,99.90
2017-11-24T05:15:19.048Z,99.90
2017-11-24T05:17:47.356Z,99.90
2017-11-24T05:20:14.829Z,99.90
2017-11-24T05:22:42.312Z,99.90
2017-11-24T05:25:09.776Z,99.90
2017-11-24T05:27:37.259Z,99.90
2017-11-24T05:30:05.510Z,99.90
2017-11-24T05:32:33.028Z,99.90
2017-11-24T05:35:00.612Z,99.90
2017-11-24T05:37:28.940Z,99.90
2017-11-24T05:39:57.197Z,99.90
2017-11-24T05:42:24.706Z,99.90
2017-11-24T05:44:53.436Z,99.90
2017-11-24T05:47:22.291Z,99.90
2017-11-24T05:49:50.739Z,99.90
2017-11-24T05:52:20.021Z,99.90
2017-11-24T05:54:47.963Z,99.90
2017-11-24T05:57:15.458Z,99.90
2017-11-24T05:59:44.824Z,99.90
2017-11-24T06:02:12.335Z,99.90
2017-11-24T06:04:42.410Z,99.90
2017-11-24T06:07:18.781Z,99.90
2017-11-24T06:09:46.592Z,99.90
2017-11-24T06:12:14.171Z,99.90
2017-11-24T06:14:41.813Z,99.90
2017-11-24T06:17:10.148Z,99.90
2017-11-24T06:19:37.771Z,99.90
2017-11-24T06:22:05.288Z,99.90
2017-11-24T06:24:32.819Z,99.90
2017-11-24T06:27:00.399Z,99.90
2017-11-24T06:29:27.885Z,99.90
2017-11-24T06:31:56.120Z,99.90
2017-11-24T06:34:23.613Z,99.90
2017-11-24T06:36:51.893Z,99.90
2017-11-24T06:39:20.143Z,99.90
2017-11-24T06:41:47.643Z,99.90
2017-11-24T06:44:15.125Z,99.90
2017-11-24T06:46:42.618Z,99.90
2017-11-24T06:49:10.145Z,99.90
2017-11-24T06:51:37.740Z,99.90
2017-11-24T06:54:05.262Z,99.90
2017-11-24T06:56:32.774Z,99.90
2017-11-24T06:59:00.245Z,99.90
2017-11-24T07:01:28.593Z,99.90
2017-11-24T07:03:56.892Z,99.90
2017-11-24T07:06:25.206Z,99.90
2017-11-24T07:08:52.697Z,99.90
2017-11-24T07:11:20.190Z,99.90
2017-11-24T07:13:47.677Z,99.90
2017-11-24T07:18:58.573Z,99.90
2017-11-24T07:21:26.060Z,99.90
2017-11-24T07:23:53.536Z,99.90
2017-11-24T07:26:21.032Z,99.90
2017-11-24T07:28:48.503Z,99.90
2017-11-24T07:31:15.986Z,99.90
2017-11-24T07:33:43.485Z,99.90
2017-11-24T07:36:11.734Z,99.90
2017-11-24T07:38:39.216Z,99.90
2017-11-24T07:41:06.701Z,99.90
2017-11-24T07:43:34.220Z,99.90
2017-11-24T07:46:01.708Z,99.90
2017-11-24T07:48:29.954Z,99.90
2017-11-24T07:50:57.451Z,99.90
2017-11-24T07:53:25.692Z,99.90
2017-11-24T07:55:53.217Z,99.90
2017-11-24T07:58:20.734Z,99.90
2017-11-24T08:00:48.977Z,99.90
2017-11-24T08:03:16.476Z,99.90
2017-11-24T08:05:43.980Z,99.90
2017-11-24T08:08:11.474Z,99.90
2017-11-24T08:10:38.960Z,99.90
2017-11-24T08:13:07.213Z,99.90
2017-11-24T08:15:34.691Z,99.90
2017-11-24T08:18:02.950Z,99.90
2017-11-24T08:20:30.486Z,99.90
2017-11-24T08:22:57.995Z,99.90
2017-11-24T08:25:27.568Z,99.90
2017-11-24T08:27:55.191Z,99.90
2017-11-24T08:30:22.689Z,99.90
2017-11-24T08:32:50.195Z,99.90
2017-11-24T08:35:17.703Z,99.90
2017-11-24T08:37:45.406Z,99.90
2017-11-24T08:40:13.109Z,99.90
2017-11-24T08:42:41.160Z,99.90
2017-11-24T08:45:08.673Z,99.90
2017-11-24T08:47:41.947Z,99.90
2017-11-24T08:50:09.428Z,99.90
2017-11-24T08:52:37.688Z,99.90
2017-11-24T08:55:05.236Z,99.90
2017-11-24T08:57:32.814Z,99.90
2017-11-24T09:00:00.372Z,99.90
2017-11-24T09:02:27.852Z,99.90
2017-11-24T09:04:55.573Z,99.90
2017-11-24T09:07:23.146Z,99.90
2017-11-24T09:09:50.717Z,99.90
2017-11-24T09:12:18.227Z,99.90
2017-11-24T09:14:45.747Z,99.90
2017-11-24T09:17:13.244Z,99.90
2017-11-24T09:19:40.816Z,99.90
2017-11-24T09:22:08.457Z,99.90
2017-11-24T09:24:36.152Z,99.90
2017-11-24T09:27:03.637Z,99.90
2017-11-24T09:29:31.122Z,99.90
2017-11-24T09:31:58.599Z,99.90
2017-11-24T09:34:26.305Z,99.90
2017-11-24T09:36:53.916Z,99.90
2017-11-24T09:39:22.172Z,99.90
2017-11-24T09:41:49.903Z,99.90
2017-11-24T09:44:17.989Z,99.90
2017-11-24T09:46:46.570Z,99.90
2017-11-24T09:49:14.349Z,99.90
2017-11-24T09:51:41.942Z,99.90
2017-11-24T09:54:10.536Z,99.90
2017-11-24T09:56:38.977Z,99.90
2017-11-24T09:59:06.763Z,99.90
2017-11-24T10:01:34.287Z,99.90
2017-11-24T10:04:01.791Z,99.90
2017-11-24T10:06:30.038Z,99.90
2017-11-24T10:08:57.566Z,99.90
2017-11-24T10:11:25.047Z,99.90
2017-11-24T10:13:52.553Z,99.90
2017-11-24T10:16:20.034Z,99.90
2017-11-24T10:18:47.729Z,99.90
2017-11-24T10:21:20.834Z,99.90
2017-11-24T10:23:48.483Z,99.90
2017-11-24T10:26:16.038Z,99.90
2017-11-24T10:28:43.712Z,99.90
2017-11-24T10:31:11.234Z,99.90
2017-11-24T10:33:38.912Z,99.90
2017-11-24T10:36:06.536Z,99.90
2017-11-24T10:38:35.831Z,99.90
2017-11-24T10:41:03.392Z,99.90
2017-11-24T10:43:30.970Z,99.90
2017-11-24T10:45:58.553Z,99.90
2017-11-24T10:48:26.106Z,99.90
2017-11-24T10:50:53.583Z,99.90
2017-11-24T10:53:21.098Z,99.90
2017-11-24T10:55:49.346Z,99.90
2017-11-24T10:58:16.909Z,99.90
2017-11-24T11:00:45.171Z,99.90
2017-11-24T11:03:12.668Z,99.90
2017-11-24T11:05:40.950Z,99.90
2017-11-24T11:08:09.202Z,99.90
2017-11-24T11:10:36.711Z,99.90
2017-11-24T11:13:04.223Z,99.90
2017-11-24T11:15:32.304Z,99.90
2017-11-24T11:17:59.826Z,99.90
2017-11-24T11:20:28.336Z,99.90
2017-11-24T11:22:56.627Z,99.90
2017-11-24T11:25:24.387Z,99.90
2017-11-24T11:27:52.800Z,99.90
2017-11-24T11:30:20.585Z,99.90
2017-11-24T11:32:48.103Z,99.90
2017-11-24T11:35:16.392Z,99.90
2017-11-24T11:37:43.892Z,99.90
2017-11-24T11:40:11.602Z,99.90
2017-11-24T11:42:39.389Z,99.90
2017-11-24T11:45:06.856Z,99.90
2017-11-24T11:47:34.345Z,99.90
2017-11-24T11:50:02.120Z,99.90
2017-11-24T11:52:29.609Z,99.90
2017-11-24T11:54:57.854Z,99.90
2017-11-24T11:57:25.349Z,99.90
2017-11-24T11:59:53.585Z,99.90
2017-11-24T12:02:21.103Z,99.90
2017-11-24T12:04:48.584Z,99.90
2017-11-24T12:07:16.125Z,99.90
2017-11-24T12:09:43.598Z,99.90
2017-11-24T12:12:11.135Z,99.90
2017-11-24T12:14:38.615Z,99.90
2017-11-24T12:17:06.159Z,99.90
2017-11-24T12:19:33.665Z,99.90
2017-11-24T12:22:01.188Z,99.90
2017-11-24T12:24:28.670Z,99.90
2017-11-24T12:26:56.176Z,99.90
2017-11-24T12:29:23.685Z,99.90
2017-11-24T12:31:51.195Z,99.90
2017-11-24T12:34:19.449Z,99.90
2017-11-24T12:36:46.937Z,99.90
2017-11-24T12:39:15.178Z,99.90
2017-11-24T12:41:42.647Z,99.90
2017-11-24T12:44:10.957Z,99.90
2017-11-24T12:46:38.445Z,99.90
2017-11-24T12:49:06.036Z,99.90
2017-11-24T12:51:33.535Z,99.90
2017-11-24T12:54:01.042Z,99.90
2017-11-24T12:56:28.517Z,99.90
2017-11-24T12:58:56.476Z,99.90
2017-11-24T13:01:23.960Z,99.90
2017-11-24T13:03:52.204Z,99.90
2017-11-24T13:06:19.674Z,99.90
2017-11-24T13:08:47.214Z,99.90
2017-11-24T13:11:14.693Z,99.90
2017-11-24T13:13:43.696Z,99.90
2017-11-24T13:16:11.215Z,99.90
2017-11-24T13:18:38.701Z,99.90
2017-11-24T13:21:06.361Z,99.90
2017-11-24T13:23:33.881Z,99.90
2017-11-24T13:26:01.386Z,99.90
2017-11-24T13:28:28.931Z,99.90
2017-11-24T13:30:56.448Z,99.90
2017-11-24T13:33:23.952Z,99.90
2017-11-24T13:35:51.427Z,99.90
2017-11-24T13:38:18.921Z,99.90
2017-11-24T13:40:46.569Z,99.90
2017-11-24T13:43:15.407Z,99.90
2017-11-24T13:45:42.974Z,99.90
2017-11-24T13:48:10.502Z,99.90
2017-11-24T13:50:38.942Z,99.90
2017-11-24T13:53:07.200Z,99.90
2017-11-24T13:55:34.801Z,99.90
2017-11-24T13:58:03.151Z,99.90
2017-11-24T14:00:32.293Z,99.90
2017-11-24T14:03:00.055Z,99.90
2017-11-24T14:05:28.852Z,99.90
2017-11-24T14:07:56.374Z,99.90
2017-11-24T14:10:23.935Z,99.90
2017-11-24T14:12:51.455Z,99.90
2017-11-24T14:15:19.329Z,99.90
2017-11-24T14:17:46.989Z,99.90
2017-11-24T14:20:14.495Z,99.90
2017-11-24T14:22:42.020Z,99.30
2017-11-24T14:25:09.622Z,98.10
2017-11-24T14:27:37.882Z,97.30
2017-11-24T14:30:05.597Z,97.30
2017-11-24T14:32:33.158Z,97.30
2017-11-24T14:35:00.854Z,96.60
2017-11-24T14:37:28.368Z,96.30
2017-11-24T14:39:55.864Z,97.10
2017-11-24T14:42:23.395Z,95.30
2017-11-24T14:44:51.027Z,94.50
2017-11-24T14:47:19.352Z,94.90
2017-11-24T14:49:46.861Z,94.90
2017-11-24T14:52:14.412Z,94.40
2017-11-24T14:54:41.887Z,95.30
2017-11-24T14:57:09.396Z,95.20
2017-11-24T14:59:36.983Z,95.00
2017-11-24T15:02:05.320Z,94.50
2017-11-24T15:05:04.977Z,94.60
2017-11-24T15:07:33.221Z,95.00
2017-11-24T15:10:00.739Z,95.00
2017-11-24T15:12:28.976Z,95.20
2017-11-24T15:14:57.014Z,95.20
2017-11-24T15:17:24.500Z,95.40
2017-11-24T15:19:52.056Z,95.50
2017-11-24T15:22:19.558Z,95.60
2017-11-24T15:24:47.804Z,96.00
2017-11-24T15:27:15.348Z,96.00
2017-11-24T15:29:42.859Z,96.00
2017-11-24T15:32:11.203Z,96.60
2017-11-24T15:34:38.779Z,96.60
2017-11-24T15:37:06.306Z,96.70
2017-11-24T15:39:33.845Z,96.90
2017-11-24T15:42:01.395Z,97.20
2017-11-24T15:44:28.873Z,97.20
2017-11-24T15:47:08.677Z,97.60
2017-11-24T15:49:36.172Z,97.70
2017-11-24T15:52:03.670Z,98.20
2017-11-24T15:54:32.907Z,98.10
2017-11-24T15:57:00.461Z,98.10
2017-11-24T15:59:28.864Z,98.50
2017-11-24T16:01:56.877Z,98.50
2017-11-24T16:04:24.391Z,98.70
2017-11-24T16:06:51.902Z,98.80
2017-11-24T16:09:19.366Z,98.80
2017-11-24T16:11:46.864Z,98.80
2017-11-24T16:14:14.365Z,98.80
2017-11-24T16:16:41.848Z,98.80
2017-11-24T16:19:09.370Z,98.90
2017-11-24T16:21:36.870Z,98.90
2017-11-24T16:24:05.139Z,99.40
2017-11-24T16:26:32.645Z,99.20
2017-11-24T16:29:00.233Z,99.30
2017-11-24T16:31:27.781Z,99.40
2017-11-24T16:33:55.341Z,99.40
2017-11-24T16:36:22.845Z,99.50
2017-11-24T16:38:51.894Z,99.40
2017-11-24T16:41:19.401Z,99.40
2017-11-24T16:43:47.764Z,99.50
2017-11-24T16:46:15.330Z,99.50
2017-11-24T16:48:42.914Z,99.60
2017-11-24T16:51:10.415Z,99.90
2017-11-24T16:53:37.967Z,99.70
2017-11-24T16:56:05.478Z,99.80
2017-11-24T16:58:32.963Z,99.80
2017-11-24T17:01:00.460Z,99.90
2017-11-24T17:03:28.075Z,99.90
2017-11-24T17:05:56.517Z,99.90
2017-11-24T17:08:24.009Z,99.90
2017-11-24T17:10:51.515Z,99.90
2017-11-24T17:13:18.994Z,99.90
2017-11-24T17:15:46.523Z,99.90
2017-11-24T17:18:14.031Z,99.90
2017-11-24T17:20:41.513Z,99.90
2017-11-24T17:23:09.923Z,99.90
2017-11-24T17:25:37.395Z,99.90
2017-11-24T17:28:04.885Z,99.70
2017-11-24T17:30:32.460Z,99.60
2017-11-24T17:33:00.885Z,99.70
2017-11-24T17:35:28.406Z,99.70
2017-11-24T17:37:56.800Z,99.70
2017-11-24T17:40:24.353Z,99.70
2017-11-24T17:42:52.665Z,99.80
2017-11-24T17:45:20.194Z,99.80
2017-11-24T17:47:48.467Z,99.70
2017-11-24T17:50:16.761Z,99.70
2017-11-24T17:52:44.305Z,99.70
2017-11-24T17:55:12.634Z,99.50
2017-11-24T17:57:40.894Z,99.50
2017-11-24T18:00:08.445Z,99.60
2017-11-24T18:02:36.146Z,99.60
2017-11-24T18:05:03.660Z,99.50
2017-11-24T18:07:31.235Z,99.50
2017-11-24T18:09:58.721Z,99.60
2017-11-24T18:12:26.294Z,99.70
2017-11-24T18:14:54.251Z,99.70
2017-11-24T18:17:21.741Z,99.70
2017-11-24T18:19:50.074Z,99.80
2017-11-24T18:22:17.596Z,99.70
2017-11-24T18:24:45.872Z,99.50
2017-11-24T18:27:14.101Z,99.50
2017-11-24T18:29:41.611Z,99.40
2017-11-24T18:32:09.100Z,99.40
2017-11-24T18:34:36.777Z,99.20
2017-11-24T18:37:04.316Z,99.20
2017-11-24T18:39:31.919Z,99.20
2017-11-24T18:41:59.413Z,99.10
2017-11-24T18:44:27.882Z,98.90
2017-11-24T18:46:55.412Z,98.80
2017-11-24T18:49:22.929Z,98.60
2017-11-24T18:51:50.410Z,98.50
2017-11-24T18:54:17.917Z,98.40
2017-11-24T18:56:46.190Z,98.30
2017-11-24T18:59:14.470Z,98.30
2017-11-24T19:01:42.794Z,98.20
2017-11-24T19:04:10.320Z,98.20
2017-11-24T19:06:37.832Z,98.20
2017-11-24T19:09:05.344Z,98.20
2017-11-24T19:11:32.924Z,98.30
2017-11-24T19:14:00.392Z,98.30
2017-11-24T19:16:27.935Z,98.40
2017-11-24T19:18:55.420Z,98.30
2017-11-24T19:21:22.903Z,98.40
2017-11-24T19:23:50.623Z,98.00
2017-11-24T19:26:18.121Z,97.80
2017-11-24T19:28:45.622Z,97.70
2017-11-24T19:31:13.112Z,97.70
2017-11-24T19:33:40.612Z,97.60
2017-11-24T19:36:08.866Z,97.70
2017-11-24T19:38:36.411Z,97.70
2017-11-24T19:41:03.965Z,97.70
2017-11-24T19:43:31.499Z,97.80
2017-11-24T19:45:58.978Z,98.00
2017-11-24T19:48:26.709Z,98.00
2017-11-24T19:50:55.004Z,97.80
2017-11-24T19:53:22.536Z,97.80
2017-11-24T19:55:50.786Z,98.20
2017-11-24T19:58:18.423Z,97.90
2017-11-24T20:00:45.912Z,97.90
2017-11-24T20:03:13.387Z,98.00
2017-11-24T20:05:40.924Z,98.20
2017-11-24T20:08:08.473Z,98.30
2017-11-24T20:10:36.037Z,98.40
2017-11-24T20:13:03.576Z,98.50
2017-11-24T20:15:31.088Z,98.50
2017-11-24T20:17:59.413Z,98.30
2017-11-24T20:20:26.918Z,98.30
2017-11-24T20:22:54.393Z,98.10
2017-11-24T20:25:21.908Z,98.10
2017-11-24T20:27:49.461Z,98.20
2017-11-24T20:30:16.999Z,98.30
2017-11-24T20:32:44.548Z,98.20
2017-11-24T20:35:12.119Z,98.20
2017-11-24T20:37:39.667Z,98.00
2017-11-24T20:40:07.164Z,98.00
2017-11-24T20:42:34.765Z,97.80
2017-11-24T20:45:03.098Z,97.70
2017-11-24T20:47:30.595Z,97.70
2017-11-24T20:49:58.177Z,97.80
2017-11-24T20:52:25.995Z,98.30
2017-11-24T20:54:54.446Z,97.60
2017-11-24T20:57:22.066Z,97.60
2017-11-24T20:59:50.444Z,97.50
2017-11-24T21:02:17.941Z,97.50
2017-11-24T21:04:45.412Z,97.20
2017-11-24T21:07:13.029Z,97.30
2017-11-24T21:09:41.344Z,97.10
2017-11-24T21:12:08.929Z,97.10
2017-11-24T21:14:37.086Z,97.20
2017-11-24T21:17:04.800Z,96.80
2017-11-24T21:19:33.450Z,96.80
2017-11-24T21:22:01.864Z,96.90
2017-11-24T21:24:29.431Z,96.90
2017-11-24T21:26:57.725Z,97.00
2017-11-24T21:29:26.006Z,96.90
2017-11-24T21:31:54.307Z,96.90
2017-11-24T21:34:21.832Z,96.90
2017-11-24T21:36:50.230Z,97.20
2017-11-24T21:39:17.836Z,97.20
2017-11-24T21:41:45.705Z,97.30
2017-11-24T21:44:13.307Z,97.30
2017-11-24T21:46:41.072Z,97.40
2017-11-24T21:49:09.336Z,97.10
2017-11-24T21:51:36.926Z,97.10
2017-11-24T21:54:04.434Z,96.80
2017-11-24T21:56:31.921Z,96.80
2017-11-24T21:58:59.422Z,96.80
2017-11-24T22:01:27.003Z,96.90
2017-11-24T22:03:54.509Z,96.80
2017-11-24T22:06:22.837Z,96.80
2017-11-24T22:08:50.438Z,96.80
2017-11-24T22:11:18.747Z,96.70
2017-11-24T22:13:46.280Z,96.70
2017-11-24T22:16:14.550Z,96.70
2017-11-24T22:18:42.024Z,96.70
2017-11-24T22:21:09.537Z,96.60
2017-11-24T22:23:37.013Z,96.50
2017-11-24T22:26:04.487Z,96.40
2017-11-24T22:28:33.269Z,96.30
2017-11-24T22:31:01.625Z,96.40
2017-11-24T22:33:29.136Z,96.40
2017-11-24T22:35:57.711Z,96.50
2017-11-24T22:38:25.971Z,96.40
2017-11-24T22:40:53.491Z,96.40
2017-11-24T22:43:20.978Z,96.40
2017-11-24T22:45:49.975Z,96.40
2017-11-24T22:48:18.240Z,96.60
2017-11-24T22:50:45.748Z,96.60
2017-11-24T22:53:13.208Z,96.50
2017-11-24T22:55:40.768Z,96.50
2017-11-24T22:58:08.257Z,96.70
2017-11-24T23:00:35.762Z,96.80
2017-11-24T23:03:03.235Z,96.90
2017-11-24T23:05:31.500Z,97.10
2017-11-24T23:07:59.757Z,96.90
2017-11-24T23:10:27.234Z,96.90
2017-11-24T23:12:54.769Z,96.60
2017-11-24T23:15:22.279Z,96.40
2017-11-24T23:17:49.748Z,96.30
2017-11-24T23:20:17.224Z,96.60
2017-11-24T23:22:45.626Z,96.70
2017-11-24T23:25:13.098Z,96.70
2017-11-24T23:27:40.612Z,96.40
2017-11-24T23:30:08.082Z,96.50
2017-11-24T23:32:35.560Z,96.70
2017-11-24T23:35:03.044Z,96.70
2017-11-24T23:37:31.338Z,96.70
2017-11-24T23:39:59.609Z,96.90
2017-11-24T23:42:27.880Z,96.80
2017-11-24T23:44:56.132Z,96.70
2017-11-24T23:47:24.404Z,97.00
2017-11-24T23:49:51.878Z,96.70
2017-11-24T23:52:19.364Z,97.10
2017-11-24T23:54:47.624Z,97.30
2017-11-24T23:57:15.850Z,97.90
2017-11-24T23:59:43.328Z,97.50
